Time;durP1;ratioP1;P1;durP2;ratioP2;P2;SDS_P1;SDS_P2;PMS_P1;PMS_P2;Temp;Humidity;BMP_temperature;BMP_pressure;BME280_temperature;BME280_humidity;BME280_pressure;Samples;Min_cycle;Max_cycle;Signal;HPM_P1;HPM_P2
2023/08/24 00:00:32;;;;;;;0.50;0.30;;;18.40;99.90;;;;;;5054297;28;20885;-81
2023/08/24 00:02:59;;;;;;;0.50;0.30;;;18.50;99.90;;;;;;5055398;28;20538;-81
2023/08/24 00:05:25;;;;;;;0.50;0.30;;;18.50;99.90;;;;;;5057444;28;20526;-80
2023/08/24 00:07:52;;;;;;;0.50;0.40;;;18.40;99.90;;;;;;5057235;28;20461;-80
2023/08/24 00:10:19;;;;;;;0.50;0.40;;;18.40;99.90;;;;;;5057406;28;20930;-79
2023/08/24 00:12:46;;;;;;;0.50;0.30;;;18.40;99.90;;;;;;5056814;28;20455;-81
2023/08/24 00:15:14;;;;;;;0.50;0.30;;;18.40;99.90;;;;;;5057733;28;20438;-81
2023/08/24 00:17:41;;;;;;;0.50;0.30;;;18.40;99.90;;;;;;5057010;28;20452;-80
2023/08/24 00:20:10;;;;;;;0.50;0.30;;;18.40;99.90;;;;;;5057212;28;20941;-81
2023/08/24 00:22:38;;;;;;;0.50;0.40;;;18.30;99.90;;;;;;5056933;28;20503;-80
2023/08/24 00:25:07;;;;;;;0.60;0.60;;;18.30;99.90;;;;;;5057165;28;20818;-81
2023/08/24 00:27:33;;;;;;;0.50;0.40;;;18.20;99.90;;;;;;5056716;28;20526;-81
2023/08/24 00:30:00;;;;;;;0.50;0.30;;;18.20;99.90;;;;;;5056727;28;20441;-81
2023/08/24 00:32:28;;;;;;;0.50;0.30;;;18.20;99.90;;;;;;5057342;28;20457;-81
2023/08/24 00:34:56;;;;;;;0.50;0.30;;;18.10;99.90;;;;;;5056720;28;20439;-81
2023/08/24 00:37:23;;;;;;;0.50;0.30;;;18.20;99.90;;;;;;5056615;28;20441;-79
2023/08/24 00:39:50;;;;;;;1.23;1.23;;;18.10;99.90;;;;;;5078442;28;20445;-80
2023/08/24 00:42:16;;;;;;;0.50;0.30;;;18.10;99.90;;;;;;5080767;28;20481;-79
2023/08/24 00:44:43;;;;;;;0.50;0.30;;;18.10;99.90;;;;;;5080616;28;20444;-79
2023/08/24 00:47:11;;;;;;;0.50;0.37;;;18.10;99.90;;;;;;5079224;28;20437;-81
2023/08/24 00:49:39;;;;;;;0.50;0.30;;;18.00;99.90;;;;;;5079967;28;20434;-80
2023/08/24 00:52:06;;;;;;;0.50;0.30;;;18.00;99.90;;;;;;5082473;28;20460;-81
2023/08/24 00:54:33;;;;;;;0.50;0.30;;;18.00;99.90;;;;;;5077542;28;20441;-80
2023/08/24 00:57:00;;;;;;;0.50;0.30;;;18.00;99.90;;;;;;5077301;28;20434;-80
2023/08/24 00:59:27;;;;;;;0.50;0.30;;;18.00;99.90;;;;;;5076630;28;20440;-80
2023/08/24 01:01:54;;;;;;;0.50;0.30;;;18.00;99.90;;;;;;5076574;28;20490;-81
2023/08/24 01:04:21;;;;;;;0.50;0.30;;;18.00;99.90;;;;;;5079175;28;20880;-80
2023/08/24 01:06:49;;;;;;;0.50;0.30;;;18.00;99.90;;;;;;5078585;28;20445;-80
2023/08/24 01:09:16;;;;;;;0.50;0.30;;;17.90;99.90;;;;;;5076261;28;20442;-81
2023/08/24 01:11:51;;;;;;;0.50;0.30;;;17.90;99.90;;;;;;5075664;28;20445;-81
2023/08/24 01:14:24;;;;;;;0.50;0.40;;;17.90;99.90;;;;;;5075729;28;20434;-82
2023/08/24 01:16:56;;;;;;;0.50;0.40;;;17.90;99.90;;;;;;5076094;28;20436;-81
2023/08/24 01:19:37;;;;;;;0.50;0.40;;;17.90;99.90;;;;;;5076229;28;20437;-80
2023/08/24 01:22:14;;;;;;;0.50;0.40;;;17.90;99.90;;;;;;5076098;28;20488;-81
2023/08/24 01:24:45;;;;;;;0.50;0.30;;;17.90;99.90;;;;;;5075495;28;20438;-80
2023/08/24 01:27:15;;;;;;;0.50;0.30;;;17.80;99.90;;;;;;5076445;28;20443;-80
2023/08/24 01:29:42;;;;;;;0.50;0.30;;;17.80;99.90;;;;;;5075875;28;20440;-81
2023/08/24 01:32:11;;;;;;;0.50;0.30;;;17.80;99.90;;;;;;5076692;28;20822;-80
2023/08/24 01:34:39;;;;;;;0.50;0.30;;;17.80;99.90;;;;;;5076002;28;20434;-80
2023/08/24 01:37:06;;;;;;;0.50;0.30;;;17.80;99.90;;;;;;5075505;28;20518;-81
2023/08/24 01:39:43;;;;;;;0.50;0.30;;;17.80;99.90;;;;;;5075935;28;20434;-80
2023/08/24 01:42:16;;;;;;;0.50;0.30;;;17.80;99.90;;;;;;5075833;28;20502;-80
2023/08/24 01:44:45;;;;;;;0.50;0.30;;;17.80;99.90;;;;;;5075895;28;20440;-80
2023/08/24 01:47:13;;;;;;;0.50;0.40;;;17.80;99.90;;;;;;5075852;28;20465;-80
2023/08/24 01:49:42;;;;;;;0.50;0.40;;;17.70;99.90;;;;;;5075557;28;20438;-80
2023/08/24 01:52:10;;;;;;;0.50;0.40;;;17.70;99.90;;;;;;5075431;28;20503;-81
2023/08/24 01:54:37;;;;;;;0.50;0.30;;;17.70;99.90;;;;;;5075754;28;20442;-78
2023/08/24 01:57:05;;;;;;;0.50;0.30;;;17.70;99.90;;;;;;5047792;28;20818;-81
2023/08/24 01:59:33;;;;;;;0.50;0.30;;;17.70;99.90;;;;;;5055435;28;20442;-80
2023/08/24 02:02:00;;;;;;;0.50;0.40;;;17.70;99.90;;;;;;5054911;28;20512;-82
2023/08/24 02:04:27;;;;;;;0.50;0.30;;;17.70;99.90;;;;;;5055292;28;20538;-81
2023/08/24 02:06:54;;;;;;;0.50;0.30;;;17.70;99.90;;;;;;5055905;28;21049;-81
2023/08/24 02:09:21;;;;;;;0.50;0.30;;;17.70;99.90;;;;;;5055256;28;20435;-80
2023/08/24 02:11:47;;;;;;;0.50;0.30;;;17.70;99.90;;;;;;5055433;28;20443;-80
2023/08/24 02:14:14;;;;;;;0.50;0.30;;;17.70;99.90;;;;;;5055398;28;20445;-80
2023/08/24 02:16:42;;;;;;;0.50;0.40;;;17.60;99.90;;;;;;5054571;28;20441;-80
2023/08/24 02:19:10;;;;;;;0.50;0.30;;;17.60;99.90;;;;;;5054660;28;20453;-81
2023/08/24 02:21:37;;;;;;;0.50;0.30;;;17.60;99.90;;;;;;5054982;28;20879;-80
2023/08/24 02:24:04;;;;;;;0.50;0.30;;;17.60;99.90;;;;;;5054760;28;20498;-80
2023/08/24 02:26:31;;;;;;;0.50;0.30;;;17.60;99.90;;;;;;5055228;28;21166;-80
2023/08/24 02:28:58;;;;;;;0.50;0.40;;;17.60;99.90;;;;;;5054535;28;20821;-81
2023/08/24 02:31:25;;;;;;;0.50;0.30;;;17.50;99.90;;;;;;5055010;28;20814;-81
2023/08/24 02:33:53;;;;;;;0.50;0.33;;;17.50;99.90;;;;;;5054324;28;20456;-81
2023/08/24 02:36:20;;;;;;;0.50;0.33;;;17.50;99.90;;;;;;5054748;28;20442;-81
2023/08/24 02:38:47;;;;;;;0.50;0.30;;;17.40;99.90;;;;;;5053450;28;20458;-81
2023/08/24 02:41:15;;;;;;;0.50;0.30;;;17.40;99.90;;;;;;5054745;28;20443;-81
2023/08/24 02:43:42;;;;;;;0.50;0.30;;;17.40;99.90;;;;;;5054831;28;20482;-80
2023/08/24 02:46:10;;;;;;;0.50;0.30;;;17.40;99.90;;;;;;5054849;28;20427;-81
2023/08/24 02:48:37;;;;;;;0.50;0.40;;;17.40;99.90;;;;;;5054455;28;20517;-80
2023/08/24 02:51:06;;;;;;;0.50;0.30;;;17.40;99.90;;;;;;5056854;22;20875;-81
2023/08/24 02:53:32;;;;;;;0.50;0.40;;;17.40;99.90;;;;;;4997764;28;20559;-81
2023/08/24 02:55:59;;;;;;;0.50;0.30;;;17.40;99.90;;;;;;5023184;28;20534;-81
2023/08/24 02:58:26;;;;;;;0.50;0.40;;;17.40;99.90;;;;;;5026037;28;20936;-81
2023/08/24 03:00:53;;;;;;;0.50;0.40;;;17.50;99.90;;;;;;5024696;28;20997;-80
2023/08/24 03:03:20;;;;;;;0.50;0.30;;;17.50;99.90;;;;;;5023183;28;20480;-81
2023/08/24 03:05:58;;;;;;;0.50;0.30;;;17.50;99.90;;;;;;5030430;28;20468;-81
2023/08/24 03:08:26;;;;;;;0.50;0.30;;;17.50;99.90;;;;;;5022922;28;20444;-81
2023/08/24 03:10:53;;;;;;;0.50;0.40;;;17.50;99.90;;;;;;5023118;28;20530;-81
2023/08/24 03:13:20;;;;;;;0.50;0.40;;;17.50;99.90;;;;;;5026382;28;20440;-81
2023/08/24 03:15:47;;;;;;;6.73;6.23;;;17.60;99.90;;;;;;5025597;28;20449;-80
2023/08/24 03:18:15;;;;;;;0.50;0.30;;;17.60;99.90;;;;;;5022669;28;20832;-81
2023/08/24 03:20:42;;;;;;;0.50;0.30;;;17.50;99.90;;;;;;5030409;28;20471;-82
2023/08/24 03:23:09;;;;;;;0.50;0.30;;;17.60;99.90;;;;;;5025554;28;20482;-82
2023/08/24 03:25:39;;;;;;;0.50;0.30;;;17.60;99.90;;;;;;5019420;28;20443;-82
2023/08/24 03:28:07;;;;;;;0.50;0.30;;;17.60;99.90;;;;;;5022716;28;20441;-83
2023/08/24 03:30:34;;;;;;;0.50;0.30;;;17.60;99.90;;;;;;5022965;28;20456;-82
2023/08/24 03:33:02;;;;;;;0.50;0.37;;;17.70;99.90;;;;;;5024964;28;20437;-82
2023/08/24 03:35:30;;;;;;;0.50;0.30;;;17.70;99.90;;;;;;5026650;28;20451;-82
2023/08/24 03:37:57;;;;;;;0.50;0.30;;;17.80;99.90;;;;;;5028216;28;20928;-82
2023/08/24 03:40:24;;;;;;;0.50;0.30;;;17.80;99.90;;;;;;5030286;28;20451;-82
2023/08/24 03:42:53;;;;;;;0.50;0.30;;;17.90;99.90;;;;;;5029933;28;20486;-82
2023/08/24 03:45:20;;;;;;;0.50;0.30;;;17.90;99.90;;;;;;5027352;28;20699;-81
2023/08/24 03:47:46;;;;;;;0.50;0.30;;;17.90;99.90;;;;;;5027673;28;20545;-82
2023/08/24 03:50:13;;;;;;;0.50;0.30;;;17.90;99.90;;;;;;5036080;28;20517;-82
2023/08/24 03:52:40;;;;;;;0.50;0.30;;;18.00;99.90;;;;;;5026989;28;20817;-82
2023/08/24 03:55:07;;;;;;;0.50;0.40;;;18.00;99.90;;;;;;5028864;28;20828;-82
2023/08/24 03:57:34;;;;;;;0.50;0.30;;;18.10;99.90;;;;;;5029769;28;20449;-82
2023/08/24 04:00:05;;;;;;;0.50;0.30;;;18.10;99.90;;;;;;5028093;28;20443;-83
2023/08/24 04:02:32;;;;;;;0.50;0.30;;;18.10;99.90;;;;;;5026805;28;20480;-82
2023/08/24 04:04:59;;;;;;;0.50;0.30;;;18.10;99.90;;;;;;5027601;28;20790;-82
2023/08/24 04:07:26;;;;;;;0.57;0.53;;;18.10;99.90;;;;;;5029056;28;20653;-82
2023/08/24 04:09:52;;;;;;;0.50;0.37;;;18.10;99.90;;;;;;5029751;28;20458;-82
2023/08/24 04:12:19;;;;;;;0.50;0.30;;;18.10;99.90;;;;;;5022304;28;20468;-83
2023/08/24 04:14:46;;;;;;;0.50;0.30;;;18.00;99.90;;;;;;5029667;28;20447;-82
2023/08/24 04:17:14;;;;;;;1.73;1.63;;;18.10;99.90;;;;;;5027403;28;20451;-82
2023/08/24 04:19:41;;;;;;;0.50;0.30;;;18.10;99.90;;;;;;5025658;28;20445;-82
2023/08/24 04:22:08;;;;;;;0.50;0.40;;;18.10;99.90;;;;;;5024638;28;20487;-83
2023/08/24 04:24:35;;;;;;;0.50;0.30;;;18.10;99.90;;;;;;5027649;28;20466;-82
2023/08/24 04:27:01;;;;;;;0.50;0.40;;;18.10;99.90;;;;;;5019508;28;20456;-83
2023/08/24 04:29:28;;;;;;;0.50;0.40;;;18.00;99.90;;;;;;5024690;28;20445;-82
2023/08/24 04:31:55;;;;;;;0.50;0.40;;;17.90;99.90;;;;;;5022932;28;20977;-83
2023/08/24 04:34:23;;;;;;;0.50;0.30;;;17.90;99.90;;;;;;5032958;28;20476;-83
2023/08/24 04:36:50;;;;;;;0.50;0.40;;;17.80;99.90;;;;;;5025399;28;20442;-81
2023/08/24 04:39:18;;;;;;;0.50;0.30;;;17.80;99.90;;;;;;5037894;28;20439;-82
2023/08/24 04:41:45;;;;;;;0.50;0.33;;;17.80;99.90;;;;;;5028363;28;20464;-82
2023/08/24 04:44:12;;;;;;;0.50;0.30;;;17.80;99.90;;;;;;5025829;28;20583;-83
2023/08/24 04:46:38;;;;;;;0.50;0.30;;;17.70;99.90;;;;;;5025062;28;20441;-82
2023/08/24 04:49:05;;;;;;;0.50;0.30;;;17.70;99.90;;;;;;5033789;28;20445;-82
2023/08/24 04:51:33;;;;;;;0.50;0.40;;;17.70;99.90;;;;;;5028327;28;20499;-81
2023/08/24 04:54:00;;;;;;;0.50;0.40;;;17.70;99.90;;;;;;5020498;28;20440;-82
2023/08/24 04:56:27;;;;;;;0.50;0.30;;;17.60;99.90;;;;;;5036781;28;20445;-82
2023/08/24 04:58:56;;;;;;;0.50;0.40;;;17.60;99.90;;;;;;5028182;28;20447;-82
2023/08/24 05:01:24;;;;;;;0.50;0.40;;;17.60;99.90;;;;;;5017929;28;20468;-80
2023/08/24 05:03:51;;;;;;;0.50;0.30;;;17.50;99.90;;;;;;5024036;28;20979;-81
2023/08/24 05:06:18;;;;;;;0.50;0.33;;;17.50;99.90;;;;;;5027808;28;20440;-82
2023/08/24 05:08:46;;;;;;;0.50;0.40;;;17.50;99.90;;;;;;5029708;28;20449;-81
2023/08/24 05:11:14;;;;;;;1.07;1.07;;;17.50;99.90;;;;;;5016455;28;20990;-82
2023/08/24 05:13:41;;;;;;;0.50;0.47;;;17.40;99.90;;;;;;5023931;28;20437;-82
2023/08/24 05:16:07;;;;;;;0.50;0.30;;;17.40;99.90;;;;;;5023760;28;20904;-81
2023/08/24 05:18:36;;;;;;;1.53;0.73;;;17.30;99.90;;;;;;5021052;28;20801;-80
2023/08/24 05:21:03;;;;;;;3.50;2.00;;;17.30;99.90;;;;;;5019605;28;20457;-81
2023/08/24 05:23:29;;;;;;;1.27;1.17;;;17.30;99.90;;;;;;5022939;28;20469;-81
2023/08/24 05:25:59;;;;;;;0.50;0.40;;;17.40;99.90;;;;;;5024335;28;20440;-82
2023/08/24 05:28:26;;;;;;;0.50;0.40;;;17.40;99.90;;;;;;5020849;28;20446;-83
2023/08/24 05:30:53;;;;;;;1.80;1.70;;;17.50;99.90;;;;;;5029004;28;20468;-81
2023/08/24 05:33:21;;;;;;;0.50;0.40;;;17.50;99.90;;;;;;5024970;28;20448;-82
2023/08/24 05:35:48;;;;;;;0.50;0.50;;;17.60;99.90;;;;;;5024979;28;20441;-82
2023/08/24 05:38:15;;;;;;;0.50;0.37;;;17.60;99.90;;;;;;5035776;28;20539;-82
2023/08/24 05:40:43;;;;;;;0.50;0.40;;;17.70;99.90;;;;;;5021614;28;20467;-82
2023/08/24 05:43:11;;;;;;;0.50;0.30;;;17.80;99.90;;;;;;5018631;28;20565;-82
2023/08/24 05:45:39;;;;;;;2.43;2.23;;;17.90;99.90;;;;;;5024529;28;20443;-83
2023/08/24 05:48:07;;;;;;;0.50;0.40;;;18.00;99.90;;;;;;5023787;28;20527;-83
2023/08/24 05:50:34;;;;;;;0.70;0.70;;;18.00;99.90;;;;;;5022626;28;20452;-82
2023/08/24 05:53:01;;;;;;;0.50;0.40;;;18.10;99.90;;;;;;5024293;28;20524;-81
2023/08/24 05:55:27;;;;;;;0.50;0.30;;;18.10;99.90;;;;;;5019894;28;20534;-82
2023/08/24 05:57:54;;;;;;;0.50;0.40;;;18.10;99.90;;;;;;5027582;28;20440;-83
2023/08/24 06:00:23;;;;;;;0.50;0.30;;;18.20;99.90;;;;;;5026272;28;20446;-83
2023/08/24 06:02:50;;;;;;;0.50;0.30;;;18.20;99.90;;;;;;5027868;28;20433;-82
2023/08/24 06:05:17;;;;;;;0.50;0.40;;;18.30;99.90;;;;;;5026401;28;20447;-82
2023/08/24 06:07:45;;;;;;;0.50;0.30;;;18.30;99.90;;;;;;5022113;28;20445;-82
2023/08/24 06:10:12;;;;;;;0.50;0.30;;;18.40;99.90;;;;;;5032344;28;20465;-84
2023/08/24 06:12:39;;;;;;;0.50;0.30;;;18.50;99.90;;;;;;5024524;28;20469;-83
2023/08/24 06:15:09;;;;;;;0.50;0.30;;;18.50;99.90;;;;;;5015694;28;20536;-83
2023/08/24 06:17:37;;;;;;;0.50;0.30;;;18.60;99.90;;;;;;5024293;28;20467;-82
2023/08/24 06:20:04;;;;;;;0.50;0.30;;;18.70;99.90;;;;;;5031954;28;20763;-82
2023/08/24 06:22:31;;;;;;;1.17;1.17;;;18.70;99.90;;;;;;5027821;28;20468;-83
2023/08/24 06:24:59;;;;;;;0.50;0.40;;;18.80;99.90;;;;;;5027352;28;20508;-83
2023/08/24 06:27:26;;;;;;;0.50;0.37;;;18.80;99.90;;;;;;5035856;28;20502;-80
2023/08/24 06:29:53;;;;;;;0.50;0.30;;;18.90;99.90;;;;;;5035183;28;20448;-82
2023/08/24 06:32:20;;;;;;;0.50;0.30;;;18.90;99.90;;;;;;5026557;28;20466;-83
2023/08/24 06:34:48;;;;;;;0.50;0.30;;;19.00;99.90;;;;;;5030908;28;20933;-82
2023/08/24 06:37:15;;;;;;;0.50;0.30;;;19.10;99.90;;;;;;5016566;28;20484;-83
2023/08/24 06:39:41;;;;;;;0.50;0.30;;;19.30;99.90;;;;;;5021606;28;20441;-82
2023/08/24 06:42:08;;;;;;;0.50;0.30;;;19.60;99.90;;;;;;5023472;28;20472;-82
2023/08/24 06:44:35;;;;;;;0.50;0.30;;;20.10;99.90;;;;;;5021862;28;20485;-82
2023/08/24 06:47:02;;;;;;;0.50;0.40;;;20.60;99.90;;;;;;5022917;28;20443;-82
2023/08/24 06:49:29;;;;;;;0.50;0.30;;;20.90;99.90;;;;;;5025498;28;20479;-81
2023/08/24 06:51:57;;;;;;;0.50;0.30;;;21.20;99.90;;;;;;5026753;28;20477;-82
2023/08/24 06:54:24;;;;;;;0.60;0.40;;;21.90;99.90;;;;;;5023047;28;20442;-82
2023/08/24 06:56:51;;;;;;;0.60;0.50;;;22.60;99.90;;;;;;5014779;28;20446;-83
2023/08/24 06:59:18;;;;;;;0.50;0.30;;;23.20;99.90;;;;;;5014298;28;20447;-82
2023/08/24 07:01:47;;;;;;;0.50;0.30;;;23.80;99.90;;;;;;5014701;28;20569;-82
2023/08/24 07:04:13;;;;;;;0.50;0.30;;;24.50;99.90;;;;;;5014447;28;20476;-82
2023/08/24 07:06:42;;;;;;;1.67;0.60;;;24.80;99.90;;;;;;5018599;28;20445;-83
2023/08/24 07:09:10;;;;;;;0.50;0.30;;;25.30;99.90;;;;;;5033079;28;20450;-82
2023/08/24 07:11:37;;;;;;;0.50;0.40;;;25.80;99.90;;;;;;5021766;28;20494;-82
2023/08/24 07:14:04;;;;;;;0.50;0.30;;;27.10;99.90;;;;;;5022138;28;20822;-83
2023/08/24 07:16:31;;;;;;;0.50;0.50;;;27.20;99.90;;;;;;5026126;28;20843;-80
2023/08/24 07:18:58;;;;;;;0.50;0.30;;;27.40;99.90;;;;;;5028946;28;20456;-84
2023/08/24 07:21:25;;;;;;;2.50;2.40;;;27.60;99.90;;;;;;5030772;28;20460;-80
2023/08/24 07:23:52;;;;;;;0.50;0.30;;;27.80;99.90;;;;;;5028390;28;20477;-83
2023/08/24 07:26:20;;;;;;;0.50;0.30;;;28.20;99.90;;;;;;5025869;28;20945;-83
2023/08/24 07:28:47;;;;;;;0.50;0.40;;;28.80;99.90;;;;;;5034336;28;20476;-82
2023/08/24 07:31:14;;;;;;;0.50;0.40;;;29.20;99.90;;;;;;5033928;28;20465;-83
2023/08/24 07:33:43;;;;;;;0.50;0.30;;;29.70;99.90;;;;;;5030346;28;20809;-82
2023/08/24 07:36:10;;;;;;;0.50;0.30;;;30.10;99.90;;;;;;5022733;28;20532;-82
2023/08/24 07:38:37;;;;;;;0.50;0.30;;;30.40;99.90;;;;;;5030045;28;20479;-82
2023/08/24 07:41:04;;;;;;;0.83;0.83;;;30.60;99.90;;;;;;5022213;28;20469;-83
2023/08/24 07:43:32;;;;;;;0.50;0.30;;;31.20;99.90;;;;;;5016277;28;20495;-82
2023/08/24 07:45:59;;;;;;;0.50;0.30;;;31.50;99.10;;;;;;5025544;28;20938;-83
2023/08/24 07:48:26;;;;;;;0.50;0.30;;;31.60;98.10;;;;;;5017379;28;20449;-83
2023/08/24 07:50:53;;;;;;;0.50;0.30;;;31.70;97.20;;;;;;5020273;28;20476;-83
2023/08/24 07:53:19;;;;;;;0.50;0.37;;;32.00;96.30;;;;;;5023051;28;20447;-83
2023/08/24 07:55:46;;;;;;;0.70;0.70;;;32.40;93.20;;;;;;5025166;28;20446;-83
2023/08/24 07:58:13;;;;;;;0.50;0.30;;;32.50;91.30;;;;;;5017201;28;20514;-80
2023/08/24 08:00:41;;;;;;;0.50;0.30;;;32.30;90.00;;;;;;5021726;28;20438;-81
2023/08/24 08:03:08;;;;;;;0.70;0.70;;;32.30;93.30;;;;;;5022352;28;20796;-81
2023/08/24 08:05:35;;;;;;;0.47;0.33;;;32.40;91.20;;;;;;5022256;28;20482;-81
2023/08/24 08:08:02;;;;;;;0.47;0.30;;;32.70;92.20;;;;;;5022839;28;21067;-81
2023/08/24 08:10:28;;;;;;;0.50;0.30;;;32.60;90.30;;;;;;5024812;28;20442;-81
2023/08/24 08:12:55;;;;;;;0.50;0.40;;;32.50;92.70;;;;;;5020806;28;20826;-82
2023/08/24 08:15:22;;;;;;;0.50;0.30;;;33.00;91.10;;;;;;5034129;28;20568;-82
2023/08/24 08:17:50;;;;;;;0.50;0.30;;;33.30;90.90;;;;;;5037923;28;20434;-82
2023/08/24 08:20:17;;;;;;;0.73;0.73;;;33.60;89.60;;;;;;5017793;28;20444;-82
2023/08/24 08:22:44;;;;;;;0.50;0.30;;;33.80;90.20;;;;;;5030797;28;20481;-82
2023/08/24 08:25:12;;;;;;;0.73;0.73;;;33.90;87.80;;;;;;5035169;28;20488;-82
2023/08/24 08:27:38;;;;;;;0.40;0.30;;;34.50;89.00;;;;;;5029582;28;20435;-82
2023/08/24 08:30:07;;;;;;;0.50;0.30;;;35.00;83.50;;;;;;5036974;28;20453;-81
2023/08/24 08:32:34;;;;;;;0.40;0.30;;;35.10;86.30;;;;;;5029110;28;20474;-82
2023/08/24 08:35:04;;;;;;;0.40;0.40;;;35.20;85.90;;;;;;5037013;28;20445;-82
2023/08/24 08:37:31;;;;;;;1.07;0.97;;;35.40;78.30;;;;;;5026936;28;20475;-82
2023/08/24 08:39:58;;;;;;;0.40;0.30;;;35.10;83.90;;;;;;5023504;28;20492;-82
2023/08/24 08:42:25;;;;;;;0.40;0.37;;;35.00;81.10;;;;;;5036278;28;20462;-82
2023/08/24 08:44:55;;;;;;;0.50;0.50;;;35.10;78.20;;;;;;5030239;28;20478;-82
2023/08/24 08:47:22;;;;;;;0.40;0.30;;;35.10;76.50;;;;;;5020644;28;20451;-82
2023/08/24 08:49:50;;;;;;;0.40;0.30;;;34.80;77.50;;;;;;5037034;28;20861;-82
2023/08/24 08:52:18;;;;;;;0.40;0.30;;;34.60;80.30;;;;;;5046190;22;20503;-81
2023/08/24 08:54:45;;;;;;;0.40;0.30;;;34.70;82.60;;;;;;5051020;28;20436;-81
2023/08/24 08:57:12;;;;;;;0.40;0.30;;;35.00;80.60;;;;;;5055084;28;20443;-79
2023/08/24 08:59:40;;;;;;;0.40;0.30;;;35.30;81.70;;;;;;5053886;28;20438;-79
2023/08/24 09:02:10;;;;;;;0.40;0.40;;;35.70;77.30;;;;;;5054357;28;20458;-80
2023/08/24 09:04:38;;;;;;;0.67;0.67;;;35.90;75.80;;;;;;5053955;28;20848;-78
2023/08/24 09:07:10;;;;;;;0.40;0.30;;;36.20;79.70;;;;;;5053761;28;20525;-79
2023/08/24 09:09:39;;;;;;;0.40;0.30;;;36.30;78.00;;;;;;5052754;28;20515;-79
2023/08/24 09:12:07;;;;;;;1.33;1.33;;;36.30;74.50;;;;;;5053503;28;20462;-80
2023/08/24 09:14:34;;;;;;;1.00;0.87;;;36.40;72.30;;;;;;5054061;28;20868;-79
2023/08/24 09:17:01;;;;;;;0.40;0.40;;;36.70;75.30;;;;;;5053871;28;20971;-80
2023/08/24 09:19:29;;;;;;;0.40;0.30;;;36.70;69.30;;;;;;5053555;28;20434;-78
2023/08/24 09:21:58;;;;;;;0.40;0.30;;;36.70;72.40;;;;;;5053427;28;20519;-80
2023/08/24 09:24:31;;;;;;;0.40;0.30;;;36.80;72.70;;;;;;5053048;28;20478;-79
2023/08/24 09:27:00;;;;;;;0.50;0.47;;;36.70;66.60;;;;;;5053188;28;20576;-78
2023/08/24 09:29:27;;;;;;;0.40;0.30;;;36.60;66.60;;;;;;5053067;28;20945;-76
2023/08/24 09:31:54;;;;;;;0.40;0.30;;;36.50;67.40;;;;;;5053326;28;20458;-80
2023/08/24 09:34:21;;;;;;;0.40;0.30;;;36.60;66.70;;;;;;5053172;28;20437;-76
2023/08/24 09:36:48;;;;;;;0.40;0.40;;;36.90;69.00;;;;;;5045280;28;20536;-77
2023/08/24 09:39:19;;;;;;;0.40;0.30;;;36.70;69.90;;;;;;5053772;28;20437;-79
2023/08/24 09:41:47;;;;;;;0.40;0.30;;;36.80;69.20;;;;;;5053627;28;20465;-79
2023/08/24 09:44:16;;;;;;;0.40;0.30;;;36.60;69.20;;;;;;5054286;28;20481;-79
2023/08/24 09:46:43;;;;;;;0.40;0.30;;;36.50;68.20;;;;;;5053644;28;20461;-79
2023/08/24 09:49:12;;;;;;;0.40;0.30;;;36.10;64.40;;;;;;5052976;28;20540;-79
2023/08/24 09:51:40;;;;;;;0.40;0.30;;;35.70;67.30;;;;;;5017062;28;1042071;-81
2023/08/24 09:54:08;;;;;;;0.40;0.30;;;35.80;68.10;;;;;;5054066;28;20710;-80
2023/08/24 09:56:37;;;;;;;0.40;0.30;;;35.70;71.50;;;;;;5054078;28;20442;-80
2023/08/24 09:59:12;;;;;;;0.40;0.30;;;35.70;70.50;;;;;;5054403;28;20488;-79
2023/08/24 10:01:43;;;;;;;0.40;0.30;;;35.70;68.20;;;;;;5053796;28;21058;-79
2023/08/24 10:04:10;;;;;;;0.40;0.30;;;35.70;67.50;;;;;;5054203;28;20442;-78
2023/08/24 10:06:39;;;;;;;0.40;0.30;;;35.10;67.10;;;;;;5053647;28;20438;-79
2023/08/24 10:09:08;;;;;;;0.40;0.30;;;35.00;68.20;;;;;;5055036;28;20449;-80
2023/08/24 10:11:41;;;;;;;0.40;0.30;;;34.50;70.70;;;;;;5054222;28;20500;-78
2023/08/24 10:14:14;;;;;;;0.63;0.63;;;34.50;71.50;;;;;;5055252;28;20529;-79
2023/08/24 10:16:45;;;;;;;0.60;0.60;;;34.70;74.60;;;;;;5055210;28;21028;-79
2023/08/24 10:19:12;;;;;;;0.50;0.30;;;34.00;69.90;;;;;;5054554;28;20948;-79
2023/08/24 10:21:40;;;;;;;0.50;0.30;;;34.00;73.50;;;;;;5054297;28;20980;-80
2023/08/24 10:24:09;;;;;;;0.50;0.30;;;33.90;72.10;;;;;;5055211;28;20456;-80
2023/08/24 10:26:38;;;;;;;0.40;0.30;;;34.20;77.50;;;;;;5054585;28;20452;-81
2023/08/24 10:29:07;;;;;;;0.43;0.40;;;34.60;72.70;;;;;;5053794;28;20904;-80
2023/08/24 10:31:35;;;;;;;0.40;0.30;;;35.00;72.20;;;;;;5054359;28;20947;-79
2023/08/24 10:34:06;;;;;;;0.60;0.60;;;35.10;68.20;;;;;;5051611;28;20461;-79
2023/08/24 10:36:34;;;;;;;0.50;0.30;;;34.00;69.60;;;;;;5053453;28;20978;-79
2023/08/24 10:39:05;;;;;;;0.50;0.37;;;33.10;71.00;;;;;;5053467;28;20442;-79
2023/08/24 10:41:47;;;;;;;0.67;0.67;;;32.60;74.40;;;;;;5053144;28;20445;-80
2023/08/24 10:44:21;;;;;;;1.00;1.00;;;32.10;74.20;;;;;;5053660;28;20445;-78
2023/08/24 10:47:13;;;;;;;0.50;0.30;;;31.10;75.20;;;;;;5053745;28;20438;-79
2023/08/24 10:49:41;;;;;;;0.50;0.30;;;31.20;85.00;;;;;;5053524;28;20434;-79
2023/08/24 10:52:21;;;;;;;0.50;0.30;;;31.60;80.40;;;;;;5053109;28;20457;-79
2023/08/24 10:54:49;;;;;;;0.50;0.30;;;32.20;79.60;;;;;;5054173;28;20433;-79
2023/08/24 10:57:21;;;;;;;0.50;0.30;;;32.80;78.50;;;;;;5056775;28;20545;-79
2023/08/24 11:00:05;;;;;;;0.50;0.30;;;33.10;76.80;;;;;;5053955;28;20442;-80
2023/08/24 11:02:41;;;;;;;0.50;0.30;;;33.30;75.70;;;;;;5054094;28;20472;-78
2023/08/24 11:05:17;;;;;;;0.70;0.50;;;32.40;75.40;;;;;;5047560;28;20491;-80
2023/08/24 11:07:52;;;;;;;0.67;0.67;;;31.90;76.90;;;;;;5053449;28;20441;-78
2023/08/24 11:10:19;;;;;;;0.50;0.30;;;31.40;76.50;;;;;;5053506;28;20440;-79
2023/08/24 11:13:12;;;;;;;0.50;0.40;;;31.40;86.20;;;;;;5053674;28;20564;-77
2023/08/24 11:15:41;;;;;;;0.50;0.30;;;31.60;81.30;;;;;;5053770;28;20464;-81
2023/08/24 11:18:25;;;;;;;0.50;0.30;;;31.80;80.70;;;;;;5055169;28;20442;-80
2023/08/24 11:20:54;;;;;;;1.03;0.93;;;32.00;82.00;;;;;;5054788;28;20456;-79
2023/08/24 11:23:23;;;;;;;0.50;0.30;;;32.20;78.50;;;;;;5058194;28;20462;-79
2023/08/24 11:25:54;;;;;;;0.80;0.40;;;31.80;80.80;;;;;;5051987;28;20492;-79
2023/08/24 11:28:21;;;;;;;0.50;0.30;;;31.20;80.00;;;;;;5053656;28;20491;-78
2023/08/24 11:30:48;;;;;;;0.50;0.30;;;30.60;83.50;;;;;;5053915;28;20445;-79
2023/08/24 11:33:17;;;;;;;0.50;0.30;;;30.50;84.30;;;;;;5053417;28;20462;-80
2023/08/24 11:35:45;;;;;;;0.50;0.30;;;30.40;85.80;;;;;;5053528;28;20441;-80
2023/08/24 11:38:13;;;;;;;0.50;0.40;;;30.40;85.50;;;;;;5053251;28;21076;-79
2023/08/24 11:40:40;;;;;;;0.50;0.30;;;30.40;86.40;;;;;;5053853;28;20449;-81
2023/08/24 11:43:07;;;;;;;0.50;0.30;;;30.20;89.40;;;;;;5054027;28;20457;-80
2023/08/24 11:45:36;;;;;;;0.50;0.30;;;29.90;87.90;;;;;;5054151;28;20476;-80
2023/08/24 11:48:04;;;;;;;0.50;0.30;;;29.60;90.10;;;;;;5053713;28;20908;-81
2023/08/24 11:50:31;;;;;;;0.50;0.30;;;29.40;91.10;;;;;;5054722;28;20445;-80
2023/08/24 11:52:59;;;;;;;0.50;0.30;;;29.10;90.80;;;;;;5054422;28;20464;-81
2023/08/24 11:55:27;;;;;;;3.00;2.73;;;28.90;91.00;;;;;;5054941;28;20445;-81
2023/08/24 11:57:55;;;;;;;0.50;0.30;;;28.70;94.40;;;;;;5053846;28;20448;-80
2023/08/24 12:00:22;;;;;;;0.50;0.30;;;28.70;96.80;;;;;;5058801;28;20448;-81
2023/08/24 12:02:50;;;;;;;0.50;0.30;;;28.80;99.90;;;;;;5058072;28;20470;-81
2023/08/24 12:05:24;;;;;;;0.70;0.70;;;29.00;99.90;;;;;;5057537;28;20480;-81
2023/08/24 12:07:53;;;;;;;0.73;0.73;;;29.10;99.90;;;;;;5058231;28;20450;-81
2023/08/24 12:10:21;;;;;;;0.87;0.87;;;29.10;99.90;;;;;;5057291;28;20452;-80
2023/08/24 12:12:49;;;;;;;0.50;0.30;;;29.00;99.90;;;;;;5057679;28;20464;-82
2023/08/24 12:15:17;;;;;;;0.63;0.63;;;29.00;99.90;;;;;;5057565;28;20875;-81
2023/08/24 12:17:45;;;;;;;0.50;0.30;;;29.00;99.90;;;;;;5056286;28;20443;-81
2023/08/24 12:20:19;;;;;;;0.50;0.30;;;29.00;99.90;;;;;;5057406;28;20451;-81
2023/08/24 12:22:52;;;;;;;0.70;0.60;;;29.00;99.90;;;;;;5057278;28;20474;-81
2023/08/24 12:25:19;;;;;;;0.50;0.30;;;28.90;99.90;;;;;;5057839;28;20529;-81
2023/08/24 12:27:47;;;;;;;0.50;0.40;;;28.80;99.90;;;;;;5057764;28;20559;-82
2023/08/24 12:30:15;;;;;;;0.50;0.30;;;28.70;99.90;;;;;;5057582;28;20550;-80
2023/08/24 12:32:45;;;;;;;0.50;0.30;;;28.80;99.90;;;;;;5057500;28;20462;-81
2023/08/24 12:35:13;;;;;;;0.50;0.30;;;28.80;99.90;;;;;;5057642;28;20439;-81
2023/08/24 12:37:40;;;;;;;0.50;0.30;;;28.80;99.90;;;;;;5057148;28;20985;-80
2023/08/24 12:40:08;;;;;;;0.50;0.30;;;28.80;99.90;;;;;;5057313;28;20443;-83
2023/08/24 12:42:35;;;;;;;0.60;0.50;;;28.60;99.90;;;;;;5057348;28;20501;-81
2023/08/24 12:45:04;;;;;;;0.50;0.30;;;28.40;99.90;;;;;;5056514;28;20479;-81
2023/08/24 12:47:34;;;;;;;0.50;0.30;;;28.20;99.90;;;;;;5057610;28;20455;-81
2023/08/24 12:50:01;;;;;;;0.50;0.30;;;28.00;99.90;;;;;;5057302;28;20520;-81
2023/08/24 12:52:28;;;;;;;0.50;0.40;;;27.70;99.90;;;;;;5057221;28;20467;-81